Time;durP1;ratioP1;P1;durP2;ratioP2;P2;SDS_P1;SDS_P2;PMS_P1;PMS_P2;Temp;Humidity;BMP_temperature;BMP_pressure;BME280_temperature;BME280_humidity;BME280_pressure;Samples;Min_cycle;Max_cycle;Signal;HPM_P1;HPM_P2
2022/07/23 00:01:28;;;;;;;16.05;8.73;;;;;;;;;;6033104;29;20065;-79
2022/07/23 00:04:30;;;;;;;;;;;;;;;;;;5992923;29;20060;-81
2022/07/23 00:07:32;;;;;;;16.55;7.72;;;;;;;;;;6028131;29;19928;-80
2022/07/23 00:10:33;;;;;;;17.95;8.30;;;;;;;;;;6028909;29;20393;-81
2022/07/23 00:13:35;;;;;;;18.75;8.88;;;;;;;;;;6011707;29;20073;-80
2022/07/23 00:16:37;;;;;;;18.30;8.60;;;;;;;;;;6023455;29;20054;-81
2022/07/23 00:19:38;;;;;;;15.02;8.20;;;;;;;;;;6009104;29;20050;-81
2022/07/23 00:22:51;;;;;;;18.30;8.57;;;;;;;;;;6028167;29;20124;-80
2022/07/23 00:25:53;;;;;;;21.00;9.23;;;;;;;;;;6027368;29;20224;-81
2022/07/23 00:28:54;;;;;;;19.87;9.87;;;;;;;;;;6011596;29;20126;-81
2022/07/23 00:31:56;;;;;;;18.60;9.20;;;;;;;;;;6010318;29;20053;-81
2022/07/23 00:34:58;;;;;;;16.77;9.23;;;;;;;;;;6019078;29;20170;-81
2022/07/23 00:38:00;;;;;;;19.38;9.60;;;;;;;;;;6021199;29;20086;-78
2022/07/23 00:41:02;;;;;;;;;;;;;;;;;;6028209;29;20510;-79
2022/07/23 00:44:24;;;;;;;17.50;9.02;;;;;;;;;;6023154;29;19963;-79
2022/07/23 00:47:26;;;;;;;17.02;9.30;;;;;;;;;;6026548;29;20072;-79
2022/07/23 00:50:28;;;;;;;15.00;8.40;;;;;;;;;;6013979;29;20113;-81
2022/07/23 00:53:31;;;;;;;16.67;9.10;;;;;;;;;;6017039;29;20094;-80
2022/07/23 00:56:33;;;;;;;19.08;9.32;;;;;;;;;;6017451;29;20136;-80
2022/07/23 00:59:35;;;;;;;16.50;8.07;;;;;;;;;;6033562;29;20090;-82
2022/07/23 01:02:38;;;;;;;17.40;8.45;;;;;;;;;;6017314;29;20124;-80
2022/07/23 01:05:39;;;;;;;19.77;8.73;;;;;;;;;;6033142;29;20090;-81
2022/07/23 01:08:42;;;;;;;18.40;8.77;;;;;;;;;;6016617;29;20568;-80
2022/07/23 01:11:43;;;;;;;19.90;8.68;;;;;;;;;;5996233;29;20183;-78
2022/07/23 01:14:45;;;;;;;19.58;9.05;;;;;;;;;;6018319;29;20047;-81
2022/07/23 01:17:47;;;;;;;15.40;8.48;;;;;;;;;;6024268;29;20075;-81
2022/07/23 01:20:49;;;;;;;18.67;9.25;;;;;;;;;;6016877;29;20064;-81
2022/07/23 01:23:50;;;;;;;13.93;7.97;;;;;;;;;;6017124;29;20197;-80
2022/07/23 01:26:53;;;;;;;15.88;8.13;;;;;;;;;;6031340;29;20589;-81
2022/07/23 01:29:54;;;;;;;14.25;8.43;;;;;;;;;;6014937;29;20178;-80
2022/07/23 01:32:57;;;;;;;14.27;8.32;;;;;;;;;;6014573;29;20528;-80
2022/07/23 01:35:58;;;;;;;14.48;8.38;;;;;;;;;;6020472;29;20444;-81
2022/07/23 01:39:03;;;;;;;17.50;9.10;;;;;;;;;;6005724;29;20666;-80
2022/07/23 01:42:05;;;;;;;14.00;8.07;;;;;;;;;;6024063;29;20050;-79
2022/07/23 01:45:08;;;;;;;;;;;;;;;;;;6017804;29;20065;-81
2022/07/23 01:48:12;;;;;;;15.95;8.43;;;;;;;;;;6016704;29;19924;-80
2022/07/23 01:51:20;;;;;;;15.63;8.75;;;;;;;;;;6010693;29;20050;-81
2022/07/23 01:54:39;;;;;;;14.40;8.27;;;;;;;;;;6006675;29;20115;-81
2022/07/23 01:57:41;;;;;;;13.05;7.68;;;;;;;;;;6020898;29;20046;-81
2022/07/23 02:00:44;;;;;;;15.45;8.93;;;;;;;;;;6020097;29;20049;-79
2022/07/23 02:03:46;;;;;;;18.92;8.43;;;;;;;;;;6005846;29;20181;-81
2022/07/23 02:06:48;;;;;;;17.33;8.55;;;;;;;;;;6008170;29;20050;-80
2022/07/23 02:09:51;;;;;;;17.10;8.50;;;;;;;;;;6005966;29;20172;-79
2022/07/23 02:12:55;;;;;;;15.80;8.68;;;;;;;;;;6024958;29;20544;-80
2022/07/23 02:15:57;;;;;;;17.20;9.23;;;;;;;;;;6018743;29;20069;-80
2022/07/23 02:18:59;;;;;;;17.25;8.50;;;;;;;;;;6019815;29;20045;-81
2022/07/23 02:22:01;;;;;;;14.57;7.90;;;;;;;;;;6020313;29;20053;-80
2022/07/23 02:25:07;;;;;;;12.70;7.65;;;;;;;;;;6033387;29;20070;-80
2022/07/23 02:28:09;;;;;;;13.88;7.90;;;;;;;;;;6025329;29;20041;-80
2022/07/23 02:31:10;;;;;;;15.10;7.90;;;;;;;;;;6015140;29;20090;-80
2022/07/23 02:34:12;;;;;;;16.27;8.70;;;;;;;;;;6023387;29;20049;-82
2022/07/23 02:37:14;;;;;;;18.48;8.60;;;;;;;;;;6010372;29;20049;-84
2022/07/23 02:40:15;;;;;;;14.77;8.15;;;;;;;;;;6011214;29;20056;-84
2022/07/23 02:43:17;;;;;;;16.50;9.15;;;;;;;;;;6013263;29;20057;-83
2022/07/23 02:46:20;;;;;;;13.15;7.78;;;;;;;;;;6019266;29;20506;-83
2022/07/23 02:49:23;;;;;;;19.50;8.90;;;;;;;;;;6018827;29;20045;-82
2022/07/23 02:52:25;;;;;;;17.88;9.45;;;;;;;;;;6016918;29;20046;-83
2022/07/23 02:55:27;;;;;;;17.77;8.38;;;;;;;;;;6012167;29;20113;-84
2022/07/23 02:58:29;;;;;;;15.70;9.43;;;;;;;;;;6010398;29;20058;-79
2022/07/23 03:01:31;;;;;;;18.48;8.63;;;;;;;;;;6013384;29;20097;-79
2022/07/23 03:04:33;;;;;;;15.23;9.02;;;;;;;;;;6014084;29;20060;-79
2022/07/23 03:07:35;;;;;;;17.10;8.80;;;;;;;;;;6018840;29;20105;-79
2022/07/23 03:10:38;;;;;;;17.30;9.52;;;;;;;;;;6015778;29;20060;-79
2022/07/23 03:13:40;;;;;;;21.15;9.50;;;;;;;;;;6026620;29;20094;-79
2022/07/23 03:16:42;;;;;;;15.40;8.53;;;;;;;;;;6020244;29;20118;-79
2022/07/23 03:19:44;;;;;;;16.45;9.23;;;;;;;;;;6026814;29;20060;-79
2022/07/23 03:22:46;;;;;;;17.55;8.93;;;;;;;;;;6014560;29;20564;-79
2022/07/23 03:25:48;;;;;;;18.05;9.65;;;;;;;;;;6006484;29;20060;-78
2022/07/23 03:28:55;;;;;;;17.25;9.52;;;;;;;;;;6010443;29;20061;-79
2022/07/23 03:31:56;;;;;;;16.98;9.50;;;;;;;;;;6009962;29;20085;-80
2022/07/23 03:34:58;;;;;;;14.43;9.00;;;;;;;;;;6011202;29;20521;-79
2022/07/23 03:38:01;;;;;;;16.50;10.02;;;;;;;;;;6023576;29;20045;-78
2022/07/23 03:41:04;;;;;;;17.15;9.02;;;;;;;;;;6011733;29;20054;-79
2022/07/23 03:44:06;;;;;;;16.85;9.10;;;;;;;;;;6027241;29;20045;-79
2022/07/23 03:47:08;;;;;;;16.48;8.85;;;;;;;;;;6030833;29;20097;-79
2022/07/23 03:50:10;;;;;;;19.55;9.35;;;;;;;;;;6013879;29;20105;-79
2022/07/23 03:53:11;;;;;;;18.17;9.20;;;;;;;;;;6013454;29;20106;-78
2022/07/23 03:56:13;;;;;;;17.35;9.15;;;;;;;;;;6012672;29;20121;-78
2022/07/23 03:59:15;;;;;;;16.17;8.80;;;;;;;;;;6013210;29;20629;-79
2022/07/23 04:02:24;;;;;;;16.05;8.38;;;;;;;;;;6012227;29;20049;-79
2022/07/23 04:05:25;;;;;;;16.13;8.15;;;;;;;;;;5994316;29;20049;-78
2022/07/23 04:08:35;;;;;;;15.85;8.48;;;;;;;;;;6010640;29;20049;-78
2022/07/23 04:11:37;;;;;;;14.50;8.70;;;;;;;;;;6013340;29;20056;-79
2022/07/23 04:14:40;;;;;;;14.68;8.27;;;;;;;;;;6011681;29;20125;-79
2022/07/23 04:17:43;;;;;;;17.40;9.15;;;;;;;;;;6013758;29;20053;-79
2022/07/23 04:20:45;;;;;;;;;;;;;;;;;;6014306;29;20042;-79
2022/07/23 04:23:47;;;;;;;14.05;8.25;;;;;;;;;;6032007;29;19928;-78
2022/07/23 04:26:49;;;;;;;15.55;8.13;;;;;;;;;;6013825;29;20052;-79
2022/07/23 04:29:50;;;;;;;14.15;8.07;;;;;;;;;;6011781;29;20049;-80
2022/07/23 04:32:52;;;;;;;15.35;8.25;;;;;;;;;;6031961;29;20113;-80
2022/07/23 04:36:00;;;;;;;14.35;7.70;;;;;;;;;;6013140;29;20060;-79
2022/07/23 04:39:02;;;;;;;13.05;7.97;;;;;;;;;;6013704;29;20050;-79
2022/07/23 04:42:05;;;;;;;18.02;8.10;;;;;;;;;;6007212;29;20041;-80
2022/07/23 04:45:07;;;;;;;14.73;7.97;;;;;;;;;;6014907;29;20053;-79
2022/07/23 04:48:14;;;;;;;12.98;7.78;;;;;;;;;;6013133;29;20074;-80
2022/07/23 04:51:28;;;;;;;14.27;7.68;;;;;;;;;;6029580;29;20050;-78
2022/07/23 04:54:30;;;;;;;12.05;7.15;;;;;;;;;;6012398;29;20402;-79
2022/07/23 04:57:32;;;;;;;14.93;8.27;;;;;;;;;;6010319;29;20053;-79
2022/07/23 05:00:43;;;;;;;15.15;7.78;;;;;;;;;;5986413;29;20061;-79
2022/07/23 05:03:45;;;;;;;13.88;7.75;;;;;;;;;;6018708;29;20098;-79
2022/07/23 05:06:47;;;;;;;16.45;8.38;;;;;;;;;;6011929;29;20060;-79
2022/07/23 05:09:48;;;;;;;15.07;8.65;;;;;;;;;;6014039;29;20142;-76
2022/07/23 05:12:50;;;;;;;14.90;8.68;;;;;;;;;;6028431;29;20064;-76
2022/07/23 05:15:52;;;;;;;16.98;8.32;;;;;;;;;;6029301;29;20073;-78
2022/07/23 05:18:54;;;;;;;16.90;8.53;;;;;;;;;;6004475;29;20735;-79
2022/07/23 05:21:56;;;;;;;13.15;7.75;;;;;;;;;;6010924;29;20050;-78
2022/07/23 05:24:57;;;;;;;13.63;7.55;;;;;;;;;;6011711;29;20100;-78
2022/07/23 05:27:59;;;;;;;12.38;6.97;;;;;;;;;;6015433;29;20336;-77
2022/07/23 05:31:01;;;;;;;15.23;7.70;;;;;;;;;;6032956;29;20101;-80
2022/07/23 05:34:07;;;;;;;13.18;8.02;;;;;;;;;;6015805;29;20042;-80
2022/07/23 05:37:10;;;;;;;17.65;7.78;;;;;;;;;;6031661;29;20128;-77
2022/07/23 05:40:12;;;;;;;13.17;7.10;;;;;;;;;;6018568;29;20057;-78
2022/07/23 05:43:14;;;;;;;15.87;7.80;;;;;;;;;;6016012;29;20868;-78
2022/07/23 05:46:16;;;;;;;14.27;7.82;;;;;;;;;;6018488;29;20453;-79
2022/07/23 05:49:23;;;;;;;16.38;9.05;;;;;;;;;;6026585;29;20041;-79
2022/07/23 05:52:45;;;;;;;14.82;8.77;;;;;;;;;;6046512;29;20080;-76
2022/07/23 05:56:05;;;;;;;15.75;7.97;;;;;;;;;;6046474;29;20132;-77
2022/07/23 05:59:07;;;;;;;16.13;7.90;;;;;;;;;;6031182;29;20057;-76
2022/07/23 06:02:08;;;;;;;13.57;7.88;;;;;;;;;;6031915;29;20315;-77
2022/07/23 06:05:10;;;;;;;15.45;7.95;;;;;;;;;;6031871;29;20045;-77
2022/07/23 06:08:13;;;;;;;14.27;7.95;;;;;;;;;;6031751;29;20080;-77
2022/07/23 06:11:14;;;;;;;13.52;8.05;;;;;;;;;;6021995;29;20045;-77
2022/07/23 06:14:16;;;;;;;12.73;7.57;;;;;;;;;;6011530;29;20068;-77
2022/07/23 06:17:26;;;;;;;11.52;7.05;;;;;;;;;;6006087;29;20518;-78
2022/07/23 06:20:30;;;;;;;11.50;6.28;;;;;;;;;;6006923;29;20050;-77
2022/07/23 06:23:38;;;;;;;10.48;5.97;;;;;;;;;;6003483;29;20077;-77
2022/07/23 06:26:39;;;;;;;11.30;6.23;;;;;;;;;;5983056;29;20053;-77
2022/07/23 06:29:41;;;;;;;9.40;6.15;;;;;;;;;;6003370;29;20150;-76
2022/07/23 06:32:42;;;;;;;7.78;5.90;;;;;;;;;;6004841;29;20038;-77
2022/07/23 06:35:44;;;;;;;8.90;5.75;;;;;;;;;;6017901;29;20050;-76
2022/07/23 06:38:46;;;;;;;7.60;5.22;;;;;;;;;;6021646;29;20053;-76
2022/07/23 06:41:50;;;;;;;8.65;5.53;;;;;;;;;;6020337;29;20421;-77
2022/07/23 06:45:10;;;;;;;8.82;5.75;;;;;;;;;;6002847;29;20125;-77
2022/07/23 06:48:11;;;;;;;8.60;4.95;;;;;;;;;;6003312;29;20050;-76
2022/07/23 06:51:13;;;;;;;9.48;4.90;;;;;;;;;;6006222;29;20603;-77
2022/07/23 06:54:15;;;;;;;7.63;5.35;;;;;;;;;;6007365;29;20064;-77
2022/07/23 06:57:16;;;;;;;7.05;5.03;;;;;;;;;;6018855;29;20072;-77
2022/07/23 07:00:18;;;;;;;8.45;4.60;;;;;;;;;;6006241;29;20182;-77
2022/07/23 07:03:21;;;;;;;7.57;5.13;;;;;;;;;;6003097;29;20110;-79
2022/07/23 07:06:23;;;;;;;10.55;5.25;;;;;;;;;;6004868;29;20069;-77
2022/07/23 07:09:25;;;;;;;;;;;;;;;;;;6007421;29;20515;-78
2022/07/23 07:12:27;;;;;;;9.02;4.90;;;;;;;;;;6022164;29;19927;-77
2022/07/23 07:15:29;;;;;;;8.70;4.93;;;;;;;;;;6020825;29;20757;-78
2022/07/23 07:18:30;;;;;;;12.35;4.93;;;;;;;;;;6015483;29;20053;-78
2022/07/23 07:21:32;;;;;;;7.85;4.97;;;;;;;;;;6023383;29;20131;-77
2022/07/23 07:24:34;;;;;;;8.93;4.40;;;;;;;;;;6016863;29;20050;-79
2022/07/23 07:27:39;;;;;;;5.93;4.30;;;;;;;;;;6001418;29;20057;-78
2022/07/23 07:30:41;;;;;;;6.25;4.63;;;;;;;;;;6024990;29;20056;-79
2022/07/23 07:33:42;;;;;;;6.63;4.45;;;;;;;;;;6003397;29;20041;-78
2022/07/23 07:36:45;;;;;;;7.80;4.82;;;;;;;;;;6019203;29;20455;-77
2022/07/23 07:39:47;;;;;;;6.55;4.45;;;;;;;;;;6025971;29;20105;-78
2022/07/23 07:42:51;;;;;;;6.80;4.00;;;;;;;;;;6021635;29;20128;-77
2022/07/23 07:45:53;;;;;;;7.65;4.40;;;;;;;;;;6020322;29;20055;-76
2022/07/23 07:48:54;;;;;;;6.15;4.20;;;;;;;;;;6014998;29;20049;-78
2022/07/23 07:51:58;;;;;;;7.10;4.15;;;;;;;;;;6006462;29;20048;-76
2022/07/23 07:55:00;;;;;;;8.27;4.40;;;;;;;;;;6020836;29;20112;-77
2022/07/23 07:58:02;;;;;;;8.93;4.43;;;;;;;;;;6001155;29;20053;-76
2022/07/23 08:01:04;;;;;;;6.50;4.05;;;;;;;;;;6012633;29;20680;-77
2022/07/23 08:04:06;;;;;;;6.63;3.93;;;;;;;;;;5989588;29;20452;-77
2022/07/23 08:07:07;;;;;;;6.32;4.40;;;;;;;;;;6005383;29;20094;-77
2022/07/23 08:10:09;;;;;;;5.75;4.30;;;;;;;;;;6006211;29;20052;-77
2022/07/23 08:13:16;;;;;;;4.95;4.05;;;;;;;;;;6005637;29;20057;-77
2022/07/23 08:16:17;;;;;;;7.70;4.43;;;;;;;;;;6005036;29;20078;-77
2022/07/23 08:19:19;;;;;;;4.10;3.70;;;;;;;;;;6010654;29;20391;-76
2022/07/23 08:22:21;;;;;;;7.18;4.10;;;;;;;;;;6020207;29;20450;-77
2022/07/23 08:25:25;;;;;;;5.32;4.25;;;;;;;;;;6021465;29;20077;-76
2022/07/23 08:28:27;;;;;;;6.35;4.43;;;;;;;;;;6013270;29;20059;-77
2022/07/23 08:31:28;;;;;;;6.63;4.23;;;;;;;;;;6009102;29;20113;-76
2022/07/23 08:34:30;;;;;;;7.07;4.40;;;;;;;;;;6005830;29;20545;-77
2022/07/23 08:37:32;;;;;;;5.10;3.95;;;;;;;;;;6003534;29;20058;-78
2022/07/23 08:40:37;;;;;;;5.03;3.95;;;;;;;;;;5990769;29;20058;-78
2022/07/23 08:43:44;;;;;;;5.70;4.72;;;;;;;;;;5999071;29;20517;-77
2022/07/23 08:46:47;;;;;;;5.75;4.43;;;;;;;;;;6017582;29;20497;-77
2022/07/23 08:49:49;;;;;;;5.32;4.65;;;;;;;;;;6011936;29;20053;-77
2022/07/23 08:52:52;;;;;;;6.90;4.20;;;;;;;;;;6019640;29;20045;-78
2022/07/23 08:55:57;;;;;;;7.40;4.63;;;;;;;;;;6022651;29;20129;-78
2022/07/23 08:58:58;;;;;;;5.30;4.32;;;;;;;;;;6021373;29;20137;-77
2022/07/23 09:02:00;;;;;;;6.87;4.40;;;;;;;;;;6027272;29;20042;-78
2022/07/23 09:05:02;;;;;;;7.38;4.35;;;;;;;;;;6003910;29;20042;-77
2022/07/23 09:08:08;;;;;;;6.03;4.43;;;;;;;;;;6009710;29;20102;-78
2022/07/23 09:11:17;;;;;;;6.53;4.40;;;;;;;;;;6016160;29;20060;-78
2022/07/23 09:14:36;;;;;;;6.32;4.50;;;;;;;;;;6015696;29;20045;-77
2022/07/23 09:17:41;;;;;;;7.47;4.43;;;;;;;;;;6002698;29;20065;-78
2022/07/23 09:20:45;;;;;;;6.15;4.65;;;;;;;;;;6007376;29;20673;-77
2022/07/23 09:23:56;;;;;;;4.70;4.20;;;;;;;;;;6014260;29;20076;-78
2022/07/23 09:26:58;;;;;;;5.15;4.55;;;;;;;;;;6012106;29;20182;-78
2022/07/23 09:30:00;;;;;;;6.73;4.57;;;;;;;;;;6022869;29;20055;-77
2022/07/23 09:33:13;;;;;;;6.43;4.40;;;;;;;;;;6022708;29;20130;-76
2022/07/23 09:36:15;;;;;;;7.07;5.25;;;;;;;;;;6021932;29;20162;-77
2022/07/23 09:39:33;;;;;;;7.28;4.72;;;;;;;;;;6012731;29;20054;-77
2022/07/23 09:42:35;;;;;;;6.53;4.55;;;;;;;;;;5998831;29;20151;-76
2022/07/23 09:45:39;;;;;;;6.55;4.80;;;;;;;;;;6018107;29;20395;-77
2022/07/23 09:48:40;;;;;;;7.03;4.32;;;;;;;;;;5994652;29;20565;-77
2022/07/23 09:51:53;;;;;;;5.47;4.35;;;;;;;;;;6019112;29;20049;-77
2022/07/23 09:55:03;;;;;;;6.60;4.82;;;;;;;;;;6019811;29;20065;-77
2022/07/23 09:58:17;;;;;;;6.88;5.00;;;;;;;;;;6013526;29;20513;-77
2022/07/23 10:01:21;;;;;;;6.95;4.78;;;;;;;;;;6001267;29;20058;-77
2022/07/23 10:04:24;;;;;;;5.10;4.28;;;;;;;;;;6012367;29;20042;-78
2022/07/23 10:07:39;;;;;;;5.03;4.25;;;;;;;;;;6012904;29;20049;-77
2022/07/23 10:11:00;;;;;;;3.70;3.30;;;;;;;;;;6008174;29;20062;-77
2022/07/23 10:14:25;;;;;;;7.35;3.22;;;;;;;;;;5996623;29;20928;-77
2022/07/23 10:17:31;;;;;;;3.55;3.15;;;;;;;;;;5999813;29;20054;-77
2022/07/23 10:20:32;;;;;;;4.15;3.17;;;;;;;;;;6021172;29;20084;-77
2022/07/23 10:23:42;;;;;;;4.00;3.60;;;;;;;;;;6021787;29;20049;-77
2022/07/23 10:27:12;;;;;;;4.05;3.30;;;;;;;;;;6016857;29;20505;-78
2022/07/23 10:30:19;;;;;;;2.60;2.40;;;;;;;;;;6020415;29;20045;-77
2022/07/23 10:34:06;;;;;;;3.47;2.58;;;;;;;;;;6018092;29;20041;-77
2022/07/23 10:37:24;;;;;;;2.70;2.38;;;;;;;;;;6019265;29;20506;-77
2022/07/23 10:40:26;;;;;;;2.75;2.38;;;;;;;;;;6021657;29;20113;-77
2022/07/23 10:43:27;;;;;;;3.42;2.60;;;;;;;;;;6020752;29;20493;-77
2022/07/23 10:46:44;;;;;;;3.75;2.45;;;;;;;;;;6017178;29;20505;-77
2022/07/23 10:49:46;;;;;;;3.80;2.50;;;;;;;;;;5998972;29;20049;-77
2022/07/23 10:53:07;;;;;;;4.18;2.70;;;;;;;;;;6000190;29;20593;-77
2022/07/23 10:56:13;;;;;;;3.58;2.28;;;;;;;;;;6016062;29;20156;-77
2022/07/23 10:59:15;;;;;;;4.90;2.42;;;;;;;;;;5999426;29;20618;-77
2022/07/23 11:02:23;;;;;;;2.70;2.50;;;;;;;;;;6016211;29;20068;-77
2022/07/23 11:05:38;;;;;;;2.97;2.65;;;;;;;;;;5999285;29;20073;-77
2022/07/23 11:08:40;;;;;;;3.05;2.75;;;;;;;;;;5999715;29;20049;-77
2022/07/23 11:11:41;;;;;;;2.88;2.22;;;;;;;;;;6016310;29;20052;-77
2022/07/23 11:15:05;;;;;;;4.55;2.60;;;;;;;;;;6012327;29;20105;-78
2022/07/23 11:18:07;;;;;;;3.30;2.33;;;;;;;;;;6020556;29;20055;-81
2022/07/23 11:21:21;;;;;;;3.47;2.40;;;;;;;;;;6017844;29;20049;-82
2022/07/23 11:24:24;;;;;;;3.50;2.38;;;;;;;;;;6012504;29;20134;-81
2022/07/23 11:27:40;;;;;;;4.35;2.50;;;;;;;;;;6022053;29;20045;-83
2022/07/23 11:30:44;;;;;;;4.03;2.47;;;;;;;;;;6012193;29;20691;-82
2022/07/23 11:34:24;;;;;;;3.15;2.58;;;;;;;;;;5995058;29;20148;-82
2022/07/23 11:37:36;;;;;;;3.28;2.65;;;;;;;;;;6011695;29;20049;-82
2022/07/23 11:40:38;;;;;;;3.05;2.50;;;;;;;;;;6024672;29;20135;-82
2022/07/23 11:43:40;;;;;;;4.05;2.50;;;;;;;;;;6027730;29;20049;-82
2022/07/23 11:46:55;;;;;;;3.67;2.70;;;;;;;;;;6024385;29;20049;-81
2022/07/23 11:49:59;;;;;;;3.28;2.60;;;;;;;;;;6017462;29;20041;-82
2022/07/23 11:53:02;;;;;;;3.30;2.50;;;;;;;;;;6030673;29;20069;-82
2022/07/23 11:56:05;;;;;;;3.70;2.67;;;;;;;;;;6023866;29;20052;-82
2022/07/23 11:59:07;;;;;;;2.35;2.08;;;;;;;;;;6028487;29;20109;-82
2022/07/23 12:02:09;;;;;;;2.40;2.20;;;;;;;;;;5999065;29;20458;-82
2022/07/23 12:05:17;;;;;;;2.45;2.25;;;;;;;;;;6028485;29;20069;-81
2022/07/23 12:12:25;;;;;;;2.40;2.20;;;;;;;;;;6027984;29;20137;-82
2022/07/23 12:15:39;;;;;;;3.50;2.40;;;;;;;;;;6029926;29;20048;-82
2022/07/23 12:18:41;;;;;;;3.15;2.65;;;;;;;;;;6024984;29;20069;-81
2022/07/23 12:21:43;;;;;;;3.53;2.58;;;;;;;;;;6028534;29;20056;-80
2022/07/23 12:25:04;;;;;;;4.45;2.58;;;;;;;;;;6006352;29;20061;-81
2022/07/23 12:28:11;;;;;;;4.65;3.28;;;;;;;;;;5999233;29;20076;-81
2022/07/23 12:31:12;;;;;;;2.95;2.65;;;;;;;;;;6031881;29;20132;-81
2022/07/23 12:34:15;;;;;;;2.40;2.20;;;;;;;;;;6030737;29;20526;-80
2022/07/23 12:37:31;;;;;;;3.03;2.70;;;;;;;;;;6037575;29;20083;-82
2022/07/23 12:40:43;;;;;;;2.97;2.65;;;;;;;;;;6033046;29;20571;-82
2022/07/23 12:43:45;;;;;;;2.80;2.50;;;;;;;;;;6031080;29;20085;-81
2022/07/23 12:46:52;;;;;;;2.55;2.35;;;;;;;;;;6036252;29;20413;-81
2022/07/23 12:49:54;;;;;;;2.42;2.22;;;;;;;;;;6032273;29;20045;-81
2022/07/23 12:53:21;;;;;;;3.13;2.78;;;;;;;;;;6022070;29;20152;-79
2022/07/23 12:56:32;;;;;;;3.47;2.25;;;;;;;;;;6003010;29;20128;-81
2022/07/23 12:59:34;;;;;;;2.75;2.55;;;;;;;;;;6033541;29;20132;-80
2022/07/23 13:02:46;;;;;;;3.17;2.45;;;;;;;;;;6020167;29;20056;-80
2022/07/23 13:05:48;;;;;;;2.60;2.40;;;;;;;;;;6029513;29;20074;-80
2022/07/23 13:08:49;;;;;;;2.85;2.55;;;;;;;;;;6028303;29;20057;-81
2022/07/23 13:11:53;;;;;;;4.05;2.63;;;;;;;;;;6026600;29;20054;-83
2022/07/23 13:14:57;;;;;;;3.50;2.70;;;;;;;;;;6011782;29;20061;-83
2022/07/23 13:17:59;;;;;;;4.53;2.60;;;;;;;;;;6027539;29;20050;-82
2022/07/23 13:21:01;;;;;;;3.03;2.33;;;;;;;;;;6020634;29;20046;-82
2022/07/23 13:24:03;;;;;;;3.78;2.42;;;;;;;;;;6007441;29;20132;-82
2022/07/23 13:27:09;;;;;;;3.03;2.53;;;;;;;;;;6026763;29;20037;-80
2022/07/23 13:30:14;;;;;;;3.60;2.42;;;;;;;;;;6012501;29;20054;-82
2022/07/23 13:33:18;;;;;;;2.60;2.28;;;;;;;;;;6029760;29;20057;-81
2022/07/23 13:36:19;;;;;;;5.10;2.53;;;;;;;;;;6019855;29;20053;-81
2022/07/23 13:39:21;;;;;;;4.15;2.90;;;;;;;;;;6029498;29;20262;-83
2022/07/23 13:42:23;;;;;;;3.53;2.70;;;;;;;;;;6025488;29;20042;-82
2022/07/23 13:45:24;;;;;;;2.60;2.40;;;;;;;;;;6019613;29;20046;-82
2022/07/23 13:48:30;;;;;;;3.65;2.95;;;;;;;;;;6021156;29;20065;-82
2022/07/23 13:51:32;;;;;;;;;;;;;;;;;;6033020;29;20060;-82
2022/07/23 13:54:34;;;;;;;2.65;2.45;;;;;;;;;;6029265;29;19924;-80
2022/07/23 13:57:36;;;;;;;4.05;2.70;;;;;;;;;;6013603;29;20065;-81
2022/07/23 14:00:42;;;;;;;4.05;2.72;;;;;;;;;;6001666;29;20061;-82
2022/07/23 14:03:53;;;;;;;2.97;2.67;;;;;;;;;;6027658;29;20069;-81
2022/07/23 14:06:56;;;;;;;3.45;3.15;;;;;;;;;;6028703;29;20052;-82
2022/07/23 14:09:57;;;;;;;3.38;2.72;;;;;;;;;;6016990;29;20052;-82
2022/07/23 14:13:00;;;;;;;3.40;3.10;;;;;;;;;;6014000;29;20046;-82
2022/07/23 14:16:01;;;;;;;;;;;;;;;;;;6025644;29;20391;-79
2022/07/23 14:19:04;;;;;;;3.23;2.63;;;;;;;;;;6014806;29;19924;-80
2022/07/23 14:22:07;;;;;;;3.63;2.47;;;;;;;;;;6021527;29;20079;-81
2022/07/23 14:25:10;;;;;;;2.92;2.60;;;;;;;;;;6027588;29;20641;-81
2022/07/23 14:28:12;;;;;;;3.03;2.63;;;;;;;;;;6026208;29;20040;-81
2022/07/23 14:31:14;;;;;;;3.40;2.47;;;;;;;;;;6026976;29;20117;-83
2022/07/23 14:34:22;;;;;;;3.75;2.80;;;;;;;;;;6028175;29;20046;-82
2022/07/23 14:37:28;;;;;;;2.95;2.60;;;;;;;;;;5974627;29;20056;-79
2022/07/23 14:40:32;;;;;;;3.08;2.78;;;;;;;;;;6021774;29;20525;-77
2022/07/23 14:43:34;;;;;;;3.35;2.75;;;;;;;;;;6010346;29;20046;-77
2022/07/23 14:46:39;;;;;;;3.83;2.72;;;;;;;;;;6006654;29;20045;-78
2022/07/23 14:49:41;;;;;;;5.65;2.92;;;;;;;;;;6021201;29;20056;-77
2022/07/23 14:52:48;;;;;;;4.82;3.00;;;;;;;;;;6021935;29;20052;-77
2022/07/23 14:55:50;;;;;;;3.22;2.75;;;;;;;;;;6021744;29;20200;-76
2022/07/23 14:58:52;;;;;;;3.30;2.60;;;;;;;;;;6019344;29;20120;-77
2022/07/23 15:01:54;;;;;;;5.05;2.85;;;;;;;;;;6022699;29;20519;-77
2022/07/23 15:05:00;;;;;;;3.28;2.72;;;;;;;;;;6004412;29;20406;-77
2022/07/23 15:08:02;;;;;;;3.55;2.85;;;;;;;;;;6016604;29;20054;-77
2022/07/23 15:11:09;;;;;;;5.32;3.13;;;;;;;;;;6017436;29;20049;-77
2022/07/23 15:14:12;;;;;;;3.92;3.00;;;;;;;;;;6018731;29;20053;-76
2022/07/23 15:17:28;;;;;;;5.63;2.92;;;;;;;;;;6020800;29;20052;-76
2022/07/23 15:20:30;;;;;;;3.40;3.10;;;;;;;;;;6015781;29;20050;-77
2022/07/23 15:23:39;;;;;;;4.43;2.88;;;;;;;;;;6021842;29;20462;-76
2022/07/23 15:26:41;;;;;;;3.13;2.42;;;;;;;;;;6020300;29;20492;-76
2022/07/23 15:29:43;;;;;;;3.28;2.83;;;;;;;;;;6017137;29;20136;-76
2022/07/23 15:32:46;;;;;;;4.43;3.08;;;;;;;;;;6021156;29;20056;-76
2022/07/23 15:35:48;;;;;;;3.58;3.03;;;;;;;;;;6018467;29;20064;-76
2022/07/23 15:38:50;;;;;;;3.30;3.00;;;;;;;;;;6021060;29;20068;-76
2022/07/23 15:41:53;;;;;;;3.40;2.97;;;;;;;;;;6016974;29;20046;-76
2022/07/23 15:44:54;;;;;;;3.83;2.97;;;;;;;;;;6014597;29;20064;-76
2022/07/23 15:47:57;;;;;;;3.28;2.95;;;;;;;;;;6003799;29;20046;-76
2022/07/23 15:51:00;;;;;;;3.95;3.03;;;;;;;;;;6019144;29;20056;-76
2022/07/23 15:54:03;;;;;;;5.38;3.20;;;;;;;;;;6020517;29;20645;-76
2022/07/23 15:57:06;;;;;;;4.28;3.28;;;;;;;;;;6000125;29;20042;-76
2022/07/23 16:00:09;;;;;;;;;;;;;;;;;;6021388;29;20046;-80
2022/07/23 16:03:10;;;;;;;3.50;3.20;;;;;;;;;;6026535;29;19948;-79
2022/07/23 16:06:12;;;;;;;3.53;3.10;;;;;;;;;;6023958;29;20072;-79
2022/07/23 16:09:19;;;;;;;4.78;3.05;;;;;;;;;;6022635;29;20061;-80
2022/07/23 16:12:21;;;;;;;4.18;3.22;;;;;;;;;;6008004;29;20072;-78
2022/07/23 16:15:22;;;;;;;3.40;2.97;;;;;;;;;;6009061;29;20045;-78
2022/07/23 16:18:25;;;;;;;3.72;3.30;;;;;;;;;;6019685;29;20052;-78
2022/07/23 16:21:27;;;;;;;3.55;3.20;;;;;;;;;;6026021;29;20069;-79
2022/07/23 16:24:28;;;;;;;4.55;3.50;;;;;;;;;;6026740;29;20052;-78
2022/07/23 16:27:35;;;;;;;3.60;3.30;;;;;;;;;;6025254;29;20049;-79
2022/07/23 16:30:36;;;;;;;3.85;3.42;;;;;;;;;;6023613;29;20117;-79
2022/07/23 16:33:39;;;;;;;5.05;3.38;;;;;;;;;;6022989;29;20045;-79
2022/07/23 16:36:41;;;;;;;5.53;3.78;;;;;;;;;;6009204;29;20054;-78
2022/07/23 16:39:43;;;;;;;4.00;3.60;;;;;;;;;;6026530;29;20052;-79
2022/07/23 16:42:44;;;;;;;3.95;3.20;;;;;;;;;;6023975;29;20052;-79
2022/07/23 16:45:46;;;;;;;4.32;3.40;;;;;;;;;;6020366;29;21690;-78
2022/07/23 16:48:48;;;;;;;4.85;3.35;;;;;;;;;;6023656;29;20447;-77
2022/07/23 16:51:50;;;;;;;4.72;2.85;;;;;;;;;;6026752;29;20136;-79
2022/07/23 16:54:51;;;;;;;4.35;3.35;;;;;;;;;;6020788;29;20045;-77
2022/07/23 16:57:53;;;;;;;4.47;3.20;;;;;;;;;;6025481;29;20295;-77
2022/07/23 17:00:55;;;;;;;3.70;3.40;;;;;;;;;;6008107;29;20053;-78
2022/07/23 17:03:56;;;;;;;4.00;3.60;;;;;;;;;;6023297;29;20138;-79
2022/07/23 17:07:02;;;;;;;4.13;3.40;;;;;;;;;;6009596;29;20536;-79
2022/07/23 17:10:06;;;;;;;4.10;3.20;;;;;;;;;;6026601;29;20614;-77
2022/07/23 17:13:09;;;;;;;4.00;3.47;;;;;;;;;;6025263;29;20076;-81
2022/07/23 17:16:10;;;;;;;4.03;3.50;;;;;;;;;;6006476;29;20045;-79
2022/07/23 17:19:12;;;;;;;4.18;3.78;;;;;;;;;;6021086;29;20444;-78
2022/07/23 17:22:14;;;;;;;5.53;3.65;;;;;;;;;;6008058;29;20053;-79
2022/07/23 17:25:18;;;;;;;5.20;3.33;;;;;;;;;;6030642;29;20046;-78
2022/07/23 17:28:20;;;;;;;5.10;3.60;;;;;;;;;;5989354;29;20438;-79
2022/07/23 17:31:21;;;;;;;4.00;3.53;;;;;;;;;;6029912;29;20041;-79
2022/07/23 17:34:23;;;;;;;4.55;3.78;;;;;;;;;;6024796;29;20052;-77
2022/07/23 17:37:25;;;;;;;5.27;3.63;;;;;;;;;;6022485;29;20053;-77
2022/07/23 17:40:26;;;;;;;4.40;3.70;;;;;;;;;;6008075;29;20462;-76
2022/07/23 17:43:29;;;;;;;4.18;3.63;;;;;;;;;;6021763;29;21166;-76
2022/07/23 17:46:31;;;;;;;7.40;4.07;;;;;;;;;;6023805;29;20048;-77
2022/07/23 17:49:32;;;;;;;6.70;3.38;;;;;;;;;;6021788;29;20863;-77
2022/07/23 17:52:50;;;;;;;4.87;3.70;;;;;;;;;;6023345;29;20049;-77
2022/07/23 17:55:52;;;;;;;5.18;3.90;;;;;;;;;;6023743;29;20815;-76
2022/07/23 17:58:54;;;;;;;;;;;;;;;;;;6018233;29;20049;-76
2022/07/23 18:01:55;;;;;;;4.80;3.72;;;;;;;;;;6025178;29;20324;-77
2022/07/23 18:04:57;;;;;;;5.38;4.07;;;;;;;;;;6021039;29;20716;-77
2022/07/23 18:07:59;;;;;;;5.10;4.07;;;;;;;;;;5989500;29;20675;-77
2022/07/23 18:11:01;;;;;;;4.87;4.23;;;;;;;;;;5999531;29;20189;-77
2022/07/23 18:14:05;;;;;;;4.30;3.90;;;;;;;;;;6005259;29;20052;-77
2022/07/23 18:17:06;;;;;;;4.43;4.03;;;;;;;;;;6022792;29;20177;-76
2022/07/23 18:20:08;;;;;;;5.83;4.30;;;;;;;;;;6019688;29;20053;-78
2022/07/23 18:23:10;;;;;;;7.32;4.38;;;;;;;;;;6023034;29;20450;-77
2022/07/23 18:26:13;;;;;;;;;;;;;;;;;;6019271;29;20075;-77